createdAt,value
2023-04-15T00:00:07.519Z,4.16
2023-04-15T00:02:44.758Z,4.14
2023-04-15T00:05:16.469Z,4.13
2023-04-15T00:07:48.332Z,4.13
2023-04-15T00:10:16.799Z,4.13
2023-04-15T00:12:45.914Z,4.12
2023-04-15T00:15:15.696Z,4.12
2023-04-15T00:17:45.385Z,4.12
2023-04-15T00:20:14.676Z,4.12
2023-04-15T00:22:43.731Z,4.13
2023-04-15T00:25:12.372Z,4.15
2023-04-15T00:27:41.347Z,4.17
2023-04-15T00:30:10.807Z,4.16
2023-04-15T00:32:39.952Z,4.15
2023-04-15T00:35:09.528Z,4.15
2023-04-15T00:37:38.809Z,4.15
2023-04-15T00:40:08.313Z,4.16
2023-04-15T00:42:37.925Z,4.17
2023-04-15T00:45:07.234Z,4.16
2023-04-15T00:47:37.455Z,4.15
2023-04-15T00:50:06.525Z,4.14
2023-04-15T00:52:35.521Z,4.13
2023-04-15T00:55:05.442Z,4.14
2023-04-15T00:57:34.461Z,4.14
2023-04-15T01:00:05.820Z,4.13
2023-04-15T01:02:37.164Z,4.12
2023-04-15T01:05:06.446Z,4.12
2023-04-15T01:07:35.623Z,4.11
2023-04-15T01:10:05.070Z,4.10
2023-04-15T01:12:36.199Z,4.09
2023-04-15T01:15:05.386Z,4.08
2023-04-15T01:17:35.224Z,4.06
2023-04-15T01:20:10.691Z,4.04
2023-04-15T01:22:39.846Z,4.03
2023-04-15T01:25:13.354Z,4.02
2023-04-15T01:27:42.842Z,4.01
2023-04-15T01:30:11.725Z,4.00
2023-04-15T01:32:43.326Z,4.00
2023-04-15T01:35:11.664Z,3.98
2023-04-15T01:37:40.238Z,3.99
2023-04-15T01:40:09.283Z,3.98
2023-04-15T01:42:38.482Z,3.97
2023-04-15T01:45:08.439Z,3.97
2023-04-15T01:47:40.024Z,3.96
2023-04-15T01:50:10.329Z,3.96
2023-04-15T01:52:39.021Z,3.95
2023-04-15T01:55:08.724Z,3.94
2023-04-15T01:57:38.632Z,3.93
2023-04-15T02:00:08.857Z,3.92
2023-04-15T02:02:44.001Z,3.90
2023-04-15T02:05:12.584Z,3.88
2023-04-15T02:07:41.063Z,3.85
2023-04-15T02:10:10.895Z,3.83
2023-04-15T02:12:40.966Z,3.82
2023-04-15T02:15:10.525Z,3.81
2023-04-15T02:17:41.333Z,3.80
2023-04-15T02:20:11.563Z,3.80
2023-04-15T02:22:40.200Z,3.80
2023-04-15T02:25:09.807Z,3.80
2023-04-15T02:27:38.635Z,3.80
2023-04-15T02:30:08.282Z,3.80
2023-04-15T02:32:38.435Z,3.80
2023-04-15T02:35:09.119Z,3.79
2023-04-15T02:37:43.887Z,3.78
2023-04-15T02:40:13.563Z,3.77
2023-04-15T02:42:44.814Z,3.76
2023-04-15T02:45:15.440Z,3.74
2023-04-15T02:47:47.748Z,3.73
2023-04-15T02:50:17.413Z,3.72
2023-04-15T02:52:46.081Z,3.71
2023-04-15T02:55:18.363Z,3.71
2023-04-15T02:57:47.140Z,3.70
2023-04-15T03:00:16.550Z,3.70
2023-04-15T03:02:48.381Z,3.70
2023-04-15T03:05:16.979Z,3.70
2023-04-15T03:07:50.781Z,3.70
2023-04-15T03:10:19.678Z,3.70
2023-04-15T03:12:48.828Z,3.68
2023-04-15T03:15:27.415Z,3.66
2023-04-15T03:17:58.885Z,3.63
2023-04-15T03:20:27.784Z,3.62
2023-04-15T03:22:59.384Z,3.61
2023-04-15T03:25:28.080Z,3.60
2023-04-15T03:27:57.430Z,3.59
2023-04-15T03:30:33.138Z,3.59
2023-04-15T03:33:03.110Z,3.57
2023-04-15T03:35:32.002Z,3.56
2023-04-15T03:38:00.309Z,3.54
2023-04-15T03:40:29.236Z,3.53
2023-04-15T03:42:57.688Z,3.52
2023-04-15T03:45:26.986Z,3.52
2023-04-15T03:47:56.545Z,3.51
2023-04-15T03:50:29.169Z,3.52
2023-04-15T03:52:57.752Z,3.52
2023-04-15T03:55:26.281Z,3.52
2023-04-15T03:57:54.654Z,3.53
2023-04-15T04:00:23.743Z,3.53
2023-04-15T04:02:52.791Z,3.53
2023-04-15T04:05:21.498Z,3.53
2023-04-15T04:07:50.280Z,3.53
2023-04-15T04:10:19.066Z,3.54
2023-04-15T04:12:47.443Z,3.54
2023-04-15T04:15:17.769Z,3.55
2023-04-15T04:17:47.225Z,3.57
2023-04-15T04:20:16.422Z,3.61
2023-04-15T04:22:46.795Z,3.63
2023-04-15T04:25:15.291Z,3.66
2023-04-15T04:27:45.627Z,3.68
2023-04-15T04:30:17.259Z,3.68
2023-04-15T04:32:50.383Z,3.66
2023-04-15T04:35:18.939Z,3.65
2023-04-15T04:37:52.942Z,3.65
2023-04-15T04:40:21.935Z,3.63
2023-04-15T04:42:50.718Z,3.62
2023-04-15T04:45:19.856Z,3.59
2023-04-15T04:47:48.992Z,3.56
2023-04-15T04:50:17.813Z,3.52
2023-04-15T04:52:51.512Z,3.50
2023-04-15T04:55:20.258Z,3.49
2023-04-15T04:57:48.586Z,3.48
2023-04-15T05:00:19.398Z,3.47
2023-04-15T05:02:48.406Z,3.47
2023-04-15T05:05:17.081Z,3.48
2023-04-15T05:07:47.244Z,3.53
2023-04-15T05:10:18.429Z,3.54
2023-04-15T05:12:47.281Z,3.52
2023-04-15T05:15:17.195Z,3.51
2023-04-15T05:17:45.963Z,3.50
2023-04-15T05:20:14.843Z,3.49
2023-04-15T05:22:44.656Z,3.49
2023-04-15T05:25:17.227Z,3.50
2023-04-15T05:27:46.742Z,3.51
2023-04-15T05:30:15.620Z,3.52
2023-04-15T05:32:45.261Z,3.52
2023-04-15T05:35:14.152Z,3.53
2023-04-15T05:37:43.075Z,3.54
2023-04-15T05:40:12.463Z,3.55
2023-04-15T05:42:40.832Z,3.57
2023-04-15T05:45:13.929Z,3.61
2023-04-15T05:47:43.560Z,3.63
2023-04-15T05:50:12.070Z,3.67
2023-04-15T05:52:40.890Z,3.70
2023-04-15T05:55:11.130Z,3.73
2023-04-15T05:57:39.985Z,3.74
2023-04-15T06:00:08.974Z,3.74
2023-04-15T06:02:43.755Z,3.73
2023-04-15T06:05:12.751Z,3.75
2023-04-15T06:07:41.578Z,3.82
2023-04-15T06:10:10.672Z,3.87
2023-04-15T06:12:40.792Z,3.93
2023-04-15T06:15:11.509Z,3.97
2023-04-15T06:17:40.023Z,4.03
2023-04-15T06:20:13.814Z,4.06
2023-04-15T06:22:42.908Z,4.05
2023-04-15T06:25:12.058Z,4.06
2023-04-15T06:27:41.585Z,4.12
2023-04-15T06:30:10.646Z,4.16
2023-04-15T06:32:41.421Z,4.20
2023-04-15T06:35:10.364Z,4.21
2023-04-15T06:37:38.684Z,4.20
2023-04-15T06:40:08.672Z,4.22
2023-04-15T06:42:38.517Z,4.23
2023-04-15T06:45:08.849Z,4.26
2023-04-15T06:47:37.918Z,4.32
2023-04-15T06:50:07.217Z,4.38
2023-04-15T06:52:37.290Z,4.41
2023-04-15T06:55:07.112Z,4.40
2023-04-15T06:57:35.888Z,4.44
2023-04-15T07:00:06.150Z,4.51
2023-04-15T07:02:35.793Z,4.62
2023-04-15T07:05:05.017Z,4.69
2023-04-15T07:07:37.588Z,4.69
2023-04-15T07:10:08.522Z,4.67
2023-04-15T07:12:36.996Z,4.64
2023-04-15T07:15:06.904Z,4.62
2023-04-15T07:17:35.994Z,4.59
2023-04-15T07:20:05.962Z,4.56
2023-04-15T07:22:34.508Z,4.57
2023-04-15T07:25:04.336Z,4.57
2023-04-15T07:27:32.812Z,4.59
2023-04-15T07:30:01.488Z,4.61
2023-04-15T07:32:30.639Z,4.61
2023-04-15T07:35:04.089Z,4.59
2023-04-15T07:37:32.878Z,4.58
2023-04-15T07:40:01.457Z,4.55
2023-04-15T07:42:37.719Z,4.53
2023-04-15T07:45:08.713Z,4.58
2023-04-15T07:47:37.362Z,4.61
2023-04-15T07:50:11.267Z,4.64
2023-04-15T07:52:44.838Z,4.68
2023-04-15T07:55:13.243Z,4.75
2023-04-15T07:57:47.654Z,4.82
2023-04-15T08:00:17.503Z,4.89
2023-04-15T08:02:48.618Z,4.96
2023-04-15T08:05:17.459Z,4.98
2023-04-15T08:07:50.388Z,4.99
2023-04-15T08:10:19.889Z,5.01
2023-04-15T08:12:49.907Z,5.05
2023-04-15T08:15:23.703Z,5.11
2023-04-15T08:17:54.023Z,5.21
2023-04-15T08:20:22.725Z,5.27
2023-04-15T08:22:52.310Z,5.34
2023-04-15T08:25:21.879Z,5.40
2023-04-15T08:27:56.459Z,5.45
2023-04-15T08:30:28.165Z,5.50
2023-04-15T08:32:56.906Z,5.56
2023-04-15T08:35:26.220Z,5.58
2023-04-15T08:37:55.094Z,5.63
2023-04-15T08:40:23.780Z,5.77
2023-04-15T08:42:59.441Z,5.89
2023-04-15T08:45:28.528Z,5.97
2023-04-15T08:48:01.658Z,6.03
2023-04-15T08:50:30.677Z,6.09
2023-04-15T08:53:02.478Z,6.12
2023-04-15T08:55:36.013Z,6.09
2023-04-15T08:58:04.292Z,6.09
2023-04-15T09:00:35.193Z,6.19
2023-04-15T09:03:04.057Z,6.34
2023-04-15T09:05:33.782Z,6.48
2023-04-15T09:08:03.674Z,6.55
2023-04-15T09:10:32.696Z,6.61
2023-04-15T09:13:03.371Z,6.64
2023-04-15T09:15:32.560Z,6.65
2023-04-15T09:18:01.415Z,6.64
2023-04-15T09:20:30.327Z,6.69
2023-04-15T09:22:58.693Z,6.78
2023-04-15T09:25:28.597Z,6.92
2023-04-15T09:27:59.270Z,7.05
2023-04-15T09:30:28.746Z,7.18
2023-04-15T09:32:59.021Z,7.19
2023-04-15T09:35:28.265Z,7.23
2023-04-15T09:38:07.738Z,7.39
2023-04-15T09:40:42.431Z,7.62
2023-04-15T09:43:13.154Z,7.78
2023-04-15T09:45:48.744Z,7.88
2023-04-15T09:48:20.959Z,7.98
2023-04-15T09:50:49.985Z,8.09
2023-04-15T09:53:20.663Z,8.20
2023-04-15T09:56:01.170Z,8.31
2023-04-15T09:58:36.312Z,8.43
2023-04-15T10:01:06.246Z,8.53
2023-04-15T10:03:38.721Z,8.66
2023-04-15T10:06:07.066Z,8.76
2023-04-15T10:08:35.601Z,8.82
2023-04-15T10:11:04.878Z,8.86
2023-04-15T10:13:36.327Z,8.86
2023-04-15T10:16:12.597Z,8.86
2023-04-15T10:18:45.932Z,8.94
2023-04-15T10:21:18.386Z,9.23
2023-04-15T10:23:47.130Z,9.51
2023-04-15T10:26:16.067Z,9.75
2023-04-15T10:28:45.421Z,9.98
2023-04-15T10:31:15.232Z,10.18
2023-04-15T10:33:44.656Z,10.33
2023-04-15T10:36:15.834Z,10.38
2023-04-15T10:38:45.957Z,10.51
2023-04-15T10:41:27.172Z,10.74
2023-04-15T10:44:01.538Z,10.91
2023-04-15T10:46:40.958Z,10.89
2023-04-15T10:49:13.045Z,10.81
2023-04-15T10:51:42.604Z,10.80
2023-04-15T10:54:26.311Z,10.61
2023-04-15T10:57:01.984Z,10.33
2023-04-15T10:59:31.576Z,10.11
2023-04-15T11:02:04.797Z,10.01
2023-04-15T11:04:53.124Z,9.93
2023-04-15T11:07:34.724Z,9.80
2023-04-15T11:10:04.973Z,9.59
2023-04-15T11:12:37.048Z,9.40
2023-04-15T11:15:27.504Z,9.32
2023-04-15T11:17:57.320Z,9.28
2023-04-15T11:20:26.419Z,9.32
2023-04-15T11:23:14.763Z,9.41
2023-04-15T11:25:44.009Z,9.44
2023-04-15T11:28:13.487Z,9.40
2023-04-15T11:30:42.863Z,9.47
2023-04-15T11:33:14.527Z,9.62
2023-04-15T11:35:43.185Z,9.73
2023-04-15T11:38:12.649Z,9.78
2023-04-15T11:40:43.857Z,9.87
2023-04-15T11:43:21.755Z,9.99
2023-04-15T11:45:54.095Z,10.09
2023-04-15T11:48:24.912Z,10.09
2023-04-15T11:50:54.919Z,10.04
2023-04-15T11:53:24.082Z,9.97
2023-04-15T11:55:53.597Z,9.93
2023-04-15T11:58:23.905Z,9.90
2023-04-15T12:00:57.621Z,9.92
2023-04-15T12:03:27.829Z,9.98
2023-04-15T12:06:22.744Z,9.99
2023-04-15T12:09:00.481Z,10.00
2023-04-15T12:11:31.905Z,10.01
2023-04-15T12:14:11.324Z,10.05
2023-04-15T12:16:50.042Z,10.13
2023-04-15T12:19:37.102Z,10.29
2023-04-15T12:22:10.069Z,10.43
2023-04-15T12:24:39.718Z,10.43
2023-04-15T12:27:09.886Z,10.44
2023-04-15T12:29:39.390Z,10.53
2023-04-15T12:32:16.001Z,10.64
2023-04-15T12:34:51.764Z,10.69
2023-04-15T12:37:20.125Z,10.64
2023-04-15T12:39:49.701Z,10.56
2023-04-15T12:42:18.469Z,10.53
2023-04-15T12:44:47.226Z,10.60
2023-04-15T12:47:15.967Z,10.61
2023-04-15T12:49:44.719Z,10.57
2023-04-15T12:52:14.143Z,10.51
2023-04-15T12:54:42.625Z,10.43
2023-04-15T12:57:11.413Z,10.35
2023-04-15T12:59:40.031Z,10.30
2023-04-15T13:02:09.211Z,10.32
2023-04-15T13:04:37.832Z,10.37
2023-04-15T13:07:06.480Z,10.33
2023-04-15T13:09:38.039Z,10.30
2023-04-15T13:12:06.300Z,10.29
2023-04-15T13:14:37.033Z,10.27
2023-04-15T13:17:10.948Z,10.23
2023-04-15T13:19:39.316Z,10.16
2023-04-15T13:22:08.616Z,10.13
2023-04-15T13:24:37.301Z,10.21
2023-04-15T13:27:06.014Z,10.33
2023-04-15T13:29:35.800Z,10.38
2023-04-15T13:32:04.948Z,10.40
2023-04-15T13:34:33.478Z,10.38
2023-04-15T13:37:08.939Z,10.35
2023-04-15T13:39:37.757Z,10.25
2023-04-15T13:42:06.704Z,10.15
2023-04-15T13:44:35.931Z,10.02
2023-04-15T13:47:04.503Z,9.90
2023-04-15T13:49:32.973Z,9.80
2023-04-15T13:52:01.530Z,9.73
2023-04-15T13:54:37.716Z,9.70
2023-04-15T13:57:06.819Z,9.72
2023-04-15T13:59:37.343Z,9.74
2023-04-15T14:02:06.363Z,9.78
2023-04-15T14:04:34.815Z,9.81
2023-04-15T14:07:05.289Z,9.79
2023-04-15T14:09:35.650Z,9.73
2023-04-15T14:12:05.276Z,9.70
2023-04-15T14:14:34.573Z,9.68
2023-04-15T14:17:04.662Z,9.68
2023-04-15T14:19:33.168Z,9.71
2023-04-15T14:22:01.588Z,9.68
2023-04-15T14:24:30.574Z,9.64
2023-04-15T14:26:59.437Z,9.62
2023-04-15T14:29:28.495Z,9.59
2023-04-15T14:32:11.528Z,9.57
2023-04-15T14:34:41.363Z,9.53
2023-04-15T14:37:10.068Z,9.51
2023-04-15T14:39:38.493Z,9.53
2023-04-15T14:42:07.278Z,9.52
2023-04-15T14:44:36.426Z,9.53
2023-04-15T14:47:05.000Z,9.53
2023-04-15T14:49:34.145Z,9.51
2023-04-15T14:52:02.922Z,9.45
2023-04-15T14:54:31.496Z,9.38
2023-04-15T14:56:59.955Z,9.34
2023-04-15T14:59:28.431Z,9.30
2023-04-15T15:01:58.142Z,9.23
2023-04-15T15:04:27.709Z,9.17
2023-04-15T15:06:56.477Z,9.14
2023-04-15T15:09:25.353Z,9.09
2023-04-15T15:11:53.858Z,9.08
2023-04-15T15:14:22.285Z,9.05
2023-04-15T15:16:51.284Z,9.02
2023-04-15T15:19:19.861Z,8.98
2023-04-15T15:21:48.298Z,8.95
2023-04-15T15:24:16.859Z,8.92
2023-04-15T15:26:45.323Z,8.88
2023-04-15T15:29:13.904Z,8.85
2023-04-15T15:31:42.438Z,8.82
2023-04-15T15:34:11.166Z,8.77
2023-04-15T15:36:39.845Z,8.74
2023-04-15T15:39:09.152Z,8.72
2023-04-15T15:41:38.346Z,8.68
2023-04-15T15:44:06.823Z,8.64
2023-04-15T15:46:35.816Z,8.61
2023-04-15T15:49:04.622Z,8.58
2023-04-15T15:51:33.930Z,8.56
2023-04-15T15:54:02.808Z,8.53
2023-04-15T15:56:31.898Z,8.50
2023-04-15T15:59:00.679Z,8.46
2023-04-15T16:01:29.478Z,8.44
2023-04-15T16:03:58.211Z,8.41
2023-04-15T16:06:27.485Z,8.37
2023-04-15T16:08:57.578Z,8.34
2023-04-15T16:11:26.898Z,8.32
2023-04-15T16:13:56.998Z,8.28
2023-04-15T16:16:25.625Z,8.24
2023-04-15T16:18:54.274Z,8.21
2023-04-15T16:21:24.995Z,8.17
2023-04-15T16:23:53.785Z,8.15
2023-04-15T16:26:23.504Z,8.11
2023-04-15T16:28:51.959Z,8.09
2023-04-15T16:31:21.246Z,8.06
2023-04-15T16:33:49.764Z,8.04
2023-04-15T16:36:18.142Z,8.02
2023-04-15T16:38:48.814Z,7.99
2023-04-15T16:41:17.482Z,7.97
2023-04-15T16:43:46.256Z,7.95
2023-04-15T16:46:14.812Z,7.93
2023-04-15T16:48:43.818Z,7.94
2023-04-15T16:51:12.629Z,7.91
2023-04-15T16:53:41.328Z,7.91
2023-04-15T16:56:11.514Z,7.91
2023-04-15T16:58:40.201Z,7.92
2023-04-15T17:01:09.137Z,7.93
2023-04-15T17:03:38.929Z,7.93
2023-04-15T17:06:07.591Z,7.93
2023-04-15T17:08:36.069Z,7.93
2023-04-15T17:11:04.768Z,7.93
2023-04-15T17:13:33.501Z,7.93
2023-04-15T17:16:02.768Z,7.93
2023-04-15T17:18:31.590Z,7.91
2023-04-15T17:21:00.320Z,7.91
2023-04-15T17:23:28.788Z,7.90
2023-04-15T17:25:57.112Z,7.90
2023-04-15T17:28:25.617Z,7.89
2023-04-15T17:30:54.159Z,7.87
2023-04-15T17:33:53.481Z,7.86
2023-04-15T17:36:12.093Z,7.85
2023-04-15T17:38:40.679Z,7.83
2023-04-15T17:41:09.209Z,7.80
2023-04-15T17:43:38.256Z,7.78
2023-04-15T17:46:07.623Z,7.78
2023-04-15T17:48:36.446Z,7.76
2023-04-15T17:51:06.899Z,7.75
2023-04-15T17:53:35.768Z,7.74
2023-04-15T17:56:04.719Z,7.71
2023-04-15T17:58:33.546Z,7.69
2023-04-15T18:01:02.029Z,7.67
2023-04-15T18:03:33.107Z,7.65
2023-04-15T18:06:01.977Z,7.63
2023-04-15T18:08:31.869Z,7.61
2023-04-15T18:11:00.304Z,7.59
2023-04-15T18:13:28.839Z,7.57
2023-04-15T18:15:57.433Z,7.56
2023-04-15T18:18:26.412Z,7.55
2023-04-15T18:20:54.896Z,7.53
2023-04-15T18:23:23.938Z,7.55
2023-04-15T18:25:53.010Z,7.55
2023-04-15T18:28:22.897Z,7.55
2023-04-15T18:30:52.000Z,7.56
2023-04-15T18:33:21.504Z,7.56
2023-04-15T18:35:50.188Z,7.56
2023-04-15T18:38:20.200Z,7.57
2023-04-15T18:40:49.012Z,7.58
2023-04-15T18:43:17.992Z,7.59
2023-04-15T18:45:46.622Z,7.59
2023-04-15T18:48:16.245Z,7.58
2023-04-15T18:50:44.879Z,7.58
2023-04-15T18:53:13.480Z,7.58
2023-04-15T18:55:42.136Z,7.56
2023-04-15T18:58:10.830Z,7.56
2023-04-15T19:00:41.987Z,7.55
2023-04-15T19:03:11.684Z,7.55
2023-04-15T19:05:40.765Z,7.54
2023-04-15T19:08:09.250Z,7.54
2023-04-15T19:10:38.345Z,7.54
2023-04-15T19:13:07.089Z,7.55
2023-04-15T19:15:36.049Z,7.58
2023-04-15T19:18:10.616Z,7.58
2023-04-15T19:20:40.204Z,7.59
2023-04-15T19:23:10.069Z,7.60
2023-04-15T19:25:38.547Z,7.60
2023-04-15T19:28:07.334Z,7.58
2023-04-15T19:30:36.424Z,7.56
2023-04-15T19:33:04.810Z,7.54
2023-04-15T19:35:34.123Z,7.51
2023-04-15T19:38:03.415Z,7.47
2023-04-15T19:40:32.036Z,7.44
2023-04-15T19:43:00.581Z,7.42
2023-04-15T19:45:29.267Z,7.40
2023-04-15T19:47:58.532Z,7.38
2023-04-15T19:50:27.997Z,7.34
2023-04-15T19:52:56.758Z,7.30
2023-04-15T19:55:25.162Z,7.27
2023-04-15T19:57:53.718Z,7.24
2023-04-15T20:00:22.266Z,7.21
2023-04-15T20:02:51.306Z,7.16
2023-04-15T20:05:19.939Z,7.13
2023-04-15T20:07:52.059Z,7.09
2023-04-15T20:10:21.251Z,7.07
2023-04-15T20:12:52.722Z,7.06
2023-04-15T20:15:23.956Z,7.02
2023-04-15T20:17:52.921Z,6.99
2023-04-15T20:20:21.819Z,6.94
2023-04-15T20:22:50.548Z,6.91
2023-04-15T20:25:19.327Z,6.88
2023-04-15T20:27:47.904Z,6.92
2023-04-15T20:30:16.470Z,6.91
2023-04-15T20:32:45.204Z,6.89
2023-04-15T20:35:14.048Z,6.87
2023-04-15T20:37:44.157Z,6.85
2023-04-15T20:40:14.388Z,6.82
2023-04-15T20:42:43.969Z,6.84
2023-04-15T20:45:12.955Z,6.81
2023-04-15T20:47:41.804Z,6.72
2023-04-15T20:50:11.315Z,6.64
2023-04-15T20:52:40.021Z,6.54
2023-04-15T20:55:09.123Z,6.44
2023-04-15T20:57:37.545Z,6.35
2023-04-15T21:00:06.850Z,6.26
2023-04-15T21:02:35.496Z,6.17
2023-04-15T21:05:04.930Z,6.09
2023-04-15T21:07:33.426Z,6.03
2023-04-15T21:10:02.155Z,5.96
2023-04-15T21:12:31.247Z,5.90
2023-04-15T21:14:59.877Z,5.88
2023-04-15T21:17:28.505Z,5.81
2023-04-15T21:19:57.236Z,5.76
2023-04-15T21:22:26.452Z,5.71
2023-04-15T21:24:54.915Z,5.66
2023-04-15T21:27:23.600Z,5.62
2023-04-15T21:29:52.082Z,5.57
2023-04-15T21:32:20.559Z,5.52
2023-04-15T21:34:49.250Z,5.47
2023-04-15T21:37:17.844Z,5.41
2023-04-15T21:39:46.415Z,5.34
2023-04-15T21:42:14.961Z,5.28
2023-04-15T21:44:43.502Z,5.18
2023-04-15T21:47:12.195Z,5.13
2023-04-15T21:49:41.072Z,5.07
2023-04-15T21:52:10.155Z,5.02
2023-04-15T21:54:38.649Z,4.99
2023-04-15T21:57:07.220Z,4.96
2023-04-15T21:59:36.108Z,4.91
2023-04-15T22:02:04.992Z,4.90
2023-04-15T22:04:33.788Z,4.85
2023-04-15T22:07:02.709Z,4.86
2023-04-15T22:09:31.267Z,4.81
2023-04-15T22:11:59.809Z,4.81
2023-04-15T22:14:29.934Z,4.77
2023-04-15T22:16:58.360Z,4.73
2023-04-15T22:19:27.439Z,4.67
2023-04-15T22:21:55.961Z,4.63
2023-04-15T22:24:32.769Z,4.59
2023-04-15T22:27:09.400Z,4.55
2023-04-15T22:29:37.974Z,4.54
2023-04-15T22:32:07.364Z,4.51
2023-04-15T22:34:37.781Z,4.45
2023-04-15T22:37:06.566Z,4.43
2023-04-15T22:39:35.386Z,4.39
2023-04-15T22:42:03.987Z,4.36
2023-04-15T22:44:32.541Z,4.32
2023-04-15T22:47:01.524Z,4.26
2023-04-15T22:49:30.067Z,4.22
2023-04-15T22:51:58.479Z,4.18
2023-04-15T22:54:27.060Z,4.11
2023-04-15T22:56:56.667Z,4.09
2023-04-15T22:59:25.982Z,4.09
2023-04-15T23:01:54.388Z,4.07
2023-04-15T23:04:27.336Z,4.04
2023-04-15T23:06:56.220Z,3.99
2023-04-15T23:09:25.003Z,3.94
2023-04-15T23:11:53.399Z,3.90
2023-04-15T23:14:24.178Z,3.89
2023-04-15T23:16:52.814Z,3.87
2023-04-15T23:19:21.412Z,3.83
2023-04-15T23:21:50.291Z,3.82
2023-04-15T23:24:18.662Z,3.80
2023-04-15T23:26:47.042Z,3.78
2023-04-15T23:29:15.581Z,3.76
2023-04-15T23:31:44.191Z,3.74
2023-04-15T23:34:12.804Z,3.71
2023-04-15T23:36:41.290Z,3.68
2023-04-15T23:39:10.386Z,3.64
2023-04-15T23:41:39.364Z,3.60
2023-04-15T23:44:08.468Z,3.56
2023-04-15T23:46:37.406Z,3.52
2023-04-15T23:49:05.941Z,3.49
2023-04-15T23:51:34.854Z,3.44
2023-04-15T23:54:03.633Z,3.42
2023-04-15T23:56:32.515Z,3.37
2023-04-15T23:59:01.099Z,3.39
